Time;durP1;ratioP1;P1;durP2;ratioP2;P2;SDS_P1;SDS_P2;PMS_P1;PMS_P2;Temp;Humidity;BMP_temperature;BMP_pressure;BME280_temperature;BME280_humidity;BME280_pressure;Samples;Min_cycle;Max_cycle;Signal;HPM_P1;HPM_P2
2022/08/19 00:01:58;;;;;;;11.10;8.18;;;;;;;21.19;67.47;96598.44;4987138;28;20845;-58
2022/08/19 00:04:29;;;;;;;11.50;8.10;;;;;;;21.26;66.64;96609.47;4985172;28;20062;-58
2022/08/19 00:06:57;;;;;;;11.60;8.00;;;;;;;21.17;67.09;96606.56;4988170;28;20053;-62
2022/08/19 00:09:24;;;;;;;8.43;7.25;;;;;;;21.12;67.60;96598.66;4986474;28;20612;-61
2022/08/19 00:11:55;;;;;;;11.57;8.20;;;;;;;21.13;67.23;96605.88;4985528;28;20055;-62
2022/08/19 00:14:24;;;;;;;8.40;7.45;;;;;;;20.99;67.02;96589.44;4986767;28;20058;-62
2022/08/19 00:16:53;;;;;;;10.70;7.78;;;;;;;20.81;67.26;96577.88;4988048;28;20081;-62
2022/08/19 00:19:22;;;;;;;11.80;8.52;;;;;;;20.92;67.54;96578.34;4987842;28;20046;-58
2022/08/19 00:21:49;;;;;;;10.82;8.38;;;;;;;21.01;67.87;96603.84;4987565;28;20505;-58
2022/08/19 00:24:16;;;;;;;10.40;8.20;;;;;;;21.08;67.25;96603.63;4986471;28;20093;-62
2022/08/19 00:26:45;;;;;;;9.43;7.43;;;;;;;20.99;67.85;96595.06;4987632;28;20058;-63
2022/08/19 00:29:14;;;;;;;11.82;8.63;;;;;;;21.01;67.89;96586.16;4987682;28;20054;-62
2022/08/19 00:31:42;;;;;;;9.90;8.38;;;;;;;20.94;68.17;96596.34;4987665;28;20046;-58
2022/08/19 00:34:11;;;;;;;9.98;8.77;;;;;;;20.99;68.25;96598.66;4987409;28;20065;-63
2022/08/19 00:36:39;;;;;;;9.00;7.97;;;;;;;20.98;67.93;96587.84;4986534;28;20054;-62
2022/08/19 00:39:06;;;;;;;11.88;9.25;;;;;;;20.03;69.20;96443.56;4987328;28;20061;-58
2022/08/19 00:41:32;;;;;;;9.48;8.38;;;;;;;20.88;69.31;96577.69;4987774;28;20050;-58
2022/08/19 00:44:06;;;;;;;12.38;8.43;;;;;;;20.61;69.16;96540.72;4987636;28;20054;-61
2022/08/19 00:46:36;;;;;;;11.00;8.40;;;;;;;20.50;69.75;96545.88;4987503;28;20414;-57
2022/08/19 00:49:21;;;;;;;12.13;8.23;;;;;;;20.50;70.27;96551.50;4986219;28;20061;-62
2022/08/19 00:51:55;;;;;;;9.77;8.77;;;;;;;20.58;69.89;96564.13;4987566;28;20058;-58
2022/08/19 00:54:22;;;;;;;11.10;8.80;;;;;;;20.42;70.48;96550.88;4987159;28;20058;-62
2022/08/19 00:56:59;;;;;;;10.85;9.23;;;;;;;20.60;70.40;96581.31;4987405;28;20104;-62
2022/08/19 00:59:28;;;;;;;10.30;8.43;;;;;;;20.54;70.45;96580.31;4987488;28;20619;-58
2022/08/19 01:02:16;;;;;;;10.20;8.10;;;;;;;20.35;71.30;96584.06;4986556;28;20050;-58
2022/08/19 01:04:43;;;;;;;9.75;8.68;;;;;;;20.18;72.14;96588.19;4985615;28;20104;-63
2022/08/19 01:07:09;;;;;;;12.90;9.35;;;;;;;20.14;72.25;96570.63;4986377;28;20058;-62
2022/08/19 01:09:43;;;;;;;10.90;9.57;;;;;;;20.14;72.87;96573.44;4985457;28;20549;-58
2022/08/19 01:12:09;;;;;;;11.82;8.18;;;;;;;20.08;72.75;96586.41;4986563;28;20057;-62
2022/08/19 01:14:39;;;;;;;11.13;9.15;;;;;;;20.05;72.63;96584.50;4986903;28;20054;-62
2022/08/19 01:17:08;;;;;;;10.57;8.52;;;;;;;20.06;73.39;96581.22;4986442;28;20062;-59
2022/08/19 01:19:40;;;;;;;9.20;8.20;;;;;;;20.06;73.18;96567.19;4986487;28;20541;-64
2022/08/19 01:22:09;;;;;;;10.10;8.77;;;;;;;20.08;73.33;96577.97;4986145;28;20060;-62
2022/08/19 01:24:42;;;;;;;10.75;9.25;;;;;;;19.92;72.46;96535.84;4985289;28;20085;-58
2022/08/19 01:27:16;;;;;;;14.55;9.38;;;;;;;20.24;72.88;96586.41;4986130;28;20129;-58
2022/08/19 01:29:47;;;;;;;11.13;8.85;;;;;;;19.97;72.38;96536.09;4986517;28;20549;-62
2022/08/19 01:32:16;;;;;;;10.35;9.18;;;;;;;20.12;73.41;96587.13;4984784;28;20058;-59
2022/08/19 01:35:01;;;;;;;13.02;9.13;;;;;;;19.92;72.70;96544.28;4986828;28;20052;-61
2022/08/19 01:37:28;;;;;;;11.52;9.00;;;;;;;20.25;72.47;96604.88;4986608;28;20050;-63
2022/08/19 01:39:55;;;;;;;9.70;8.40;;;;;;;20.16;72.91;96588.63;4986346;28;20054;-58
2022/08/19 01:42:22;;;;;;;9.52;8.52;;;;;;;20.15;72.95;96608.75;4986280;28;20109;-63
2022/08/19 01:44:56;;;;;;;11.50;8.40;;;;;;;20.09;73.20;96605.66;4986301;28;20497;-60
2022/08/19 01:47:23;;;;;;;11.13;8.75;;;;;;;20.04;73.80;96603.41;4985857;28;20584;-60
2022/08/19 01:49:49;;;;;;;10.82;8.68;;;;;;;20.05;73.80;96604.97;4986325;28;20058;-62
2022/08/19 01:52:16;;;;;;;14.23;9.27;;;;;;;19.87;73.72;96581.38;4986312;28;20089;-59
2022/08/19 01:54:43;;;;;;;10.98;9.15;;;;;;;19.65;73.02;96544.59;4986022;28;20069;-61
2022/08/19 01:57:13;;;;;;;10.40;9.40;;;;;;;20.04;73.70;96602.63;4985818;28;20092;-57
2022/08/19 01:59:42;;;;;;;12.65;9.88;;;;;;;20.04;73.78;96608.22;4985950;28;20133;-59
2022/08/19 02:02:10;;;;;;;10.52;9.43;;;;;;;20.11;73.58;96608.03;4985747;28;20050;-58
2022/08/19 02:04:40;;;;;;;12.32;9.27;;;;;;;19.99;73.29;96589.09;4985922;28;20078;-62
2022/08/19 02:07:08;;;;;;;14.00;9.35;;;;;;;20.05;74.07;96615.44;4985376;28;20066;-60
2022/08/19 02:09:35;;;;;;;10.65;9.55;;;;;;;20.03;74.75;96606.66;4985737;28;20557;-62
2022/08/19 02:12:03;;;;;;;13.15;10.00;;;;;;;19.93;75.39;96625.41;4984071;28;20576;-58
2022/08/19 02:14:30;;;;;;;13.05;9.73;;;;;;;19.99;75.09;96603.16;4985546;28;20065;-58
2022/08/19 02:16:56;;;;;;;12.82;9.15;;;;;;;18.86;75.60;96468.38;4985485;28;20054;-60
2022/08/19 02:19:23;;;;;;;11.85;9.07;;;;;;;19.10;75.41;96495.03;4989944;28;20073;-61
2022/08/19 02:21:51;;;;;;;11.90;10.07;;;;;;;19.74;76.16;96611.44;4985684;28;20054;-63
2022/08/19 02:24:18;;;;;;;13.55;9.88;;;;;;;19.82;75.40;96618.47;4985616;28;20141;-58
2022/08/19 02:26:44;;;;;;;11.18;9.10;;;;;;;19.82;75.45;96615.66;4985253;28;20058;-58
2022/08/19 02:29:11;;;;;;;11.13;9.00;;;;;;;19.80;76.11;96618.09;4985464;28;20061;-63
2022/08/19 02:31:38;;;;;;;15.45;9.35;;;;;;;19.70;77.09;96610.72;4985438;28;20053;-58
2022/08/19 02:34:05;;;;;;;11.10;9.32;;;;;;;19.80;76.29;96620.91;4985332;28;20402;-59
2022/08/19 02:36:31;;;;;;;11.60;9.30;;;;;;;19.76;76.93;96594.94;4984571;28;20050;-58
2022/08/19 02:38:58;;;;;;;11.18;9.32;;;;;;;19.65;76.93;96602.84;4985030;28;20133;-63
2022/08/19 02:41:32;;;;;;;10.85;9.65;;;;;;;19.58;77.27;96621.44;4985124;28;20058;-59
2022/08/19 02:44:02;;;;;;;12.45;10.45;;;;;;;19.37;79.25;96605.13;4985447;28;20061;-62
2022/08/19 02:46:52;;;;;;;11.15;9.55;;;;;;;19.03;78.33;96545.75;4983716;28;20108;-64
2022/08/19 02:49:19;;;;;;;11.00;9.80;;;;;;;18.68;78.59;96506.50;4985423;28;20070;-62
2022/08/19 02:51:47;;;;;;;12.75;9.98;;;;;;;19.53;78.20;96633.25;4983803;28;20061;-59
2022/08/19 02:54:14;;;;;;;14.45;10.55;;;;;;;19.38;79.50;96629.19;4985314;28;20093;-59
2022/08/19 02:56:42;;;;;;;13.50;10.15;;;;;;;19.24;79.79;96595.78;4984756;28;20086;-58
2022/08/19 02:59:09;;;;;;;12.75;11.38;;;;;;;19.34;80.56;96634.09;4984925;28;20074;-61
2022/08/19 03:01:39;;;;;;;17.40;11.13;;;;;;;19.25;81.51;96642.28;4984837;28;20112;-63
2022/08/19 03:04:08;;;;;;;14.77;11.40;;;;;;;19.19;82.24;96637.66;4984515;28;20129;-63
2022/08/19 03:06:40;;;;;;;11.77;10.57;;;;;;;19.12;82.77;96647.03;4985105;28;20695;-63
2022/08/19 03:09:06;;;;;;;12.82;11.48;;;;;;;19.06;83.34;96639.56;4984905;28;20057;-59
2022/08/19 03:11:33;;;;;;;13.50;12.07;;;;;;;18.62;83.45;96576.38;4985044;28;20433;-63
2022/08/19 03:14:01;;;;;;;18.35;12.90;;;;;;;18.96;84.24;96658.22;4984896;28;20437;-58
2022/08/19 03:16:31;;;;;;;14.38;12.52;;;;;;;19.05;84.37;96644.38;4984981;28;20073;-59
2022/08/19 03:19:00;;;;;;;14.25;11.82;;;;;;;19.14;84.36;96647.38;4984992;28;20426;-63
2022/08/19 03:21:30;;;;;;;13.05;11.05;;;;;;;19.07;83.90;96653.16;4984598;28;20145;-59
2022/08/19 03:24:02;;;;;;;18.38;12.02;;;;;;;19.25;83.09;96669.59;4984548;28;20543;-59
2022/08/19 03:26:29;;;;;;;12.77;11.35;;;;;;;19.38;82.58;96651.66;4985317;28;20050;-64
2022/08/19 03:28:57;;;;;;;14.95;11.30;;;;;;;19.49;81.68;96657.00;4984881;28;20046;-64
2022/08/19 03:31:26;;;;;;;14.32;11.48;;;;;;;19.48;82.02;96663.88;4984875;28;20089;-61
2022/08/19 03:34:17;;;;;;;14.77;12.38;;;;;;;19.29;82.28;96614.97;4985353;28;20050;-57
2022/08/19 03:36:46;;;;;;;16.98;11.73;;;;;;;19.60;80.98;96659.56;4983276;28;20054;-62
2022/08/19 03:39:13;;;;;;;15.27;11.43;;;;;;;19.61;80.59;96652.72;4984773;28;20512;-58
2022/08/19 03:41:43;;;;;;;15.07;11.43;;;;;;;19.78;79.85;96668.34;4984946;28;20054;-58
2022/08/19 03:44:15;;;;;;;13.68;10.80;;;;;;;19.90;79.09;96664.84;4985085;28;20592;-59
2022/08/19 03:47:03;;;;;;;13.32;10.40;;;;;;;19.85;79.77;96662.56;4982894;28;20057;-58
2022/08/19 03:49:33;;;;;;;16.95;10.32;;;;;;;19.86;80.53;96666.94;4988289;28;20062;-59
2022/08/19 03:52:04;;;;;;;14.63;10.90;;;;;;;19.92;80.76;96667.97;4986757;28;20116;-62
2022/08/19 03:54:31;;;;;;;15.13;11.27;;;;;;;19.89;81.50;96663.25;4986789;28;20070;-59
2022/08/19 03:56:58;;;;;;;16.25;11.00;;;;;;;19.97;81.64;96675.88;4987838;28;20050;-62
2022/08/19 03:59:31;;;;;;;14.80;11.30;;;;;;;20.16;80.71;96666.59;4986231;28;20047;-56
2022/08/19 04:02:00;;;;;;;15.63;10.98;;;;;;;20.26;79.78;96654.28;4988169;28;20371;-62
2022/08/19 04:04:28;;;;;;;11.85;10.57;;;;;;;20.30;79.88;96660.56;4986644;28;20064;-64
2022/08/19 04:06:57;;;;;;;13.43;10.27;;;;;;;20.31;79.34;96667.81;4987827;28;20068;-62
2022/08/19 04:09:25;;;;;;;17.42;10.80;;;;;;;20.38;78.86;96664.78;4987694;28;20536;-58
2022/08/19 04:11:54;;;;;;;14.27;10.65;;;;;;;20.46;78.73;96664.16;4987683;28;20066;-62
2022/08/19 04:14:25;;;;;;;13.02;10.65;;;;;;;20.45;78.73;96656.16;4987567;28;20054;-62
2022/08/19 04:16:53;;;;;;;14.90;11.20;;;;;;;20.39;79.56;96661.50;4987811;28;20050;-64
2022/08/19 04:19:20;;;;;;;18.75;11.23;;;;;;;20.52;79.27;96667.19;4987353;28;20046;-64
2022/08/19 04:21:52;;;;;;;14.65;10.77;;;;;;;20.54;79.12;96653.47;4986263;28;20449;-63
2022/08/19 04:24:20;;;;;;;11.82;10.63;;;;;;;20.21;79.51;96606.97;4987430;28;20535;-63
2022/08/19 04:26:48;;;;;;;12.15;10.88;;;;;;;20.52;79.54;96656.72;4985723;28;20058;-63
2022/08/19 04:29:24;;;;;;;12.32;10.88;;;;;;;20.33;79.41;96604.22;4995173;28;20535;-59
2022/08/19 04:31:53;;;;;;;12.75;11.05;;;;;;;20.73;79.12;96655.34;5005746;28;20108;-63
2022/08/19 04:34:22;;;;;;;17.63;11.55;;;;;;;20.84;79.04;96661.44;5006399;28;20057;-64
2022/08/19 04:36:50;;;;;;;15.60;11.23;;;;;;;20.94;79.20;96661.13;5006642;28;20053;-63
2022/08/19 04:42:38;;;;;;;12.07;10.70;;;;;;;21.01;79.17;96645.31;5005125;28;20532;-59
2022/08/19 04:44:56;;;;;;;20.67;12.48;;;;;;;20.77;77.74;96574.41;5006567;28;20076;-60
2022/08/19 04:47:24;;;;;;;17.83;10.95;;;;;;;21.33;77.76;96654.34;5006778;28;20060;-59
2022/08/19 04:50:11;;;;;;;22.67;12.82;;;;;;;21.18;76.73;96608.16;5007143;28;20096;-59
2022/08/19 04:52:42;;;;;;;13.57;11.50;;;;;;;21.55;74.78;96655.25;5006366;28;20472;-63
2022/08/19 04:55:10;;;;;;;13.32;10.82;;;;;;;21.45;74.72;96659.19;5006479;28;20432;-64
2022/08/19 04:57:39;;;;;;;14.48;11.25;;;;;;;21.10;74.93;96632.16;5004706;28;20053;-59
2022/08/19 05:00:10;;;;;;;15.52;11.85;;;;;;;21.47;75.02;96670.81;5005352;28;20092;-64
2022/08/19 05:02:37;;;;;;;12.80;11.50;;;;;;;21.28;73.89;96611.84;5006573;28;20053;-59
2022/08/19 05:05:06;;;;;;;16.13;12.15;;;;;;;21.70;73.84;96662.03;5005147;28;20054;-66
2022/08/19 05:07:34;;;;;;;19.63;11.20;;;;;;;21.92;72.95;96656.47;5005990;28;20064;-57
2022/08/19 05:10:01;;;;;;;15.43;11.48;;;;;;;22.05;72.54;96649.56;5005119;28;20441;-58
2022/08/19 05:12:28;;;;;;;17.27;11.05;;;;;;;22.18;72.41;96630.56;5005403;28;20591;-63
2022/08/19 05:14:57;;;;;;;19.20;10.98;;;;;;;22.29;71.51;96614.03;5005813;28;20050;-60
2022/08/19 05:17:25;;;;;;;15.43;11.30;;;;;;;22.84;70.32;96642.72;5004650;28;20062;-60
2022/08/19 05:22:44;;;;;;;20.13;11.98;;;;;;;23.41;67.88;96647.81;5005935;28;20055;-61
2022/08/19 05:25:18;;;;;;;14.52;10.70;;;;;;;23.66;66.26;96641.94;5005874;28;20057;-59
2022/08/19 05:27:45;;;;;;;13.38;10.50;;;;;;;23.72;66.15;96625.91;5005736;28;20363;-58
2022/08/19 05:30:12;;;;;;;11.63;10.40;;;;;;;23.98;64.92;96635.75;4993383;28;20057;-60
2022/08/19 05:32:40;;;;;;;12.02;10.20;;;;;;;24.30;64.14;96640.03;4984638;28;20065;-61
2022/08/19 05:35:07;;;;;;;17.13;10.80;;;;;;;24.38;63.45;96636.44;4986427;28;20164;-61
2022/08/19 05:37:34;;;;;;;15.23;10.45;;;;;;;24.58;63.56;96656.59;4985690;28;20050;-59
2022/08/19 05:40:01;;;;;;;16.00;11.32;;;;;;;24.68;63.20;96661.03;4985851;28;20112;-59
2022/08/19 05:42:28;;;;;;;13.95;9.95;;;;;;;24.90;62.29;96643.84;4985782;28;20051;-62
2022/08/19 05:44:55;;;;;;;13.20;11.80;;;;;;;22.86;62.02;96296.41;4986700;28;20108;-61
2022/08/19 05:47:22;;;;;;;16.45;10.77;;;;;;;24.92;61.40;96595.97;4985880;28;20046;-61
2022/08/19 05:49:50;;;;;;;11.18;9.80;;;;;;;24.98;61.26;96594.88;4985823;28;20488;-59
2022/08/19 05:52:18;;;;;;;20.33;11.25;;;;;;;25.67;60.18;96640.19;4985887;28;20141;-61
2022/08/19 05:54:54;;;;;;;16.00;10.85;;;;;;;25.54;59.99;96601.94;4986166;28;20054;-61
2022/08/19 05:57:22;;;;;;;17.77;11.48;;;;;;;25.65;60.19;96639.09;4985407;28;20047;-62
2022/08/19 05:59:51;;;;;;;13.35;11.40;;;;;;;25.82;59.77;96634.59;4985667;28;20054;-60
2022/08/19 06:02:23;;;;;;;13.63;10.05;;;;;;;26.12;58.18;96647.69;4985762;28;20080;-63
2022/08/19 06:04:50;;;;;;;12.65;9.98;;;;;;;26.32;57.40;96642.22;4985698;28;20055;-63
2022/08/19 06:07:16;;;;;;;12.65;10.55;;;;;;;26.57;56.32;96638.88;4985436;28;20057;-59
2022/08/19 06:09:43;;;;;;;17.70;10.77;;;;;;;26.72;55.98;96628.34;4986345;28;20056;-59
2022/08/19 06:12:28;;;;;;;13.38;9.65;;;;;;;27.04;54.92;96641.63;4998295;28;20064;-64
2022/08/19 06:14:55;;;;;;;11.93;9.95;;;;;;;27.31;54.91;96635.69;5004859;28;20136;-55
2022/08/19 06:17:29;;;;;;;17.35;9.60;;;;;;;27.54;53.63;96631.16;4991980;28;20060;-56
2022/08/19 06:19:58;;;;;;;11.77;10.00;;;;;;;27.70;52.46;96633.47;5004296;28;20155;-55
2022/08/19 06:22:25;;;;;;;13.40;10.60;;;;;;;27.65;52.84;96602.88;4998193;28;20050;-62
2022/08/19 06:24:53;;;;;;;13.07;10.65;;;;;;;28.07;51.75;96629.69;4993211;28;20493;-56
2022/08/19 06:27:21;;;;;;;12.13;10.05;;;;;;;28.14;51.14;96605.69;4984904;28;20851;-58
2022/08/19 06:29:48;;;;;;;11.50;9.70;;;;;;;28.47;49.88;96628.16;5002763;28;20092;-59
2022/08/19 06:32:18;;;;;;;13.32;7.95;;;;;;;28.28;49.04;96626.88;4984314;28;20161;-58
2022/08/19 06:34:46;;;;;;;12.13;8.68;;;;;;;28.45;48.02;96619.31;4987784;28;20089;-59
2022/08/19 06:37:13;;;;;;;11.43;8.55;;;;;;;28.56;46.50;96600.31;4984604;28;20074;-57
2022/08/19 06:39:41;;;;;;;13.45;8.63;;;;;;;28.77;46.49;96627.50;4984925;28;20050;-58
2022/08/19 06:42:11;;;;;;;9.85;8.57;;;;;;;26.88;46.81;96326.56;4984646;28;20138;-62
2022/08/19 06:44:41;;;;;;;11.98;8.82;;;;;;;28.97;46.38;96623.84;4985007;28;20144;-63
2022/08/19 06:47:18;;;;;;;9.48;8.57;;;;;;;29.23;46.67;96610.38;4984540;28;20101;-62
2022/08/19 06:49:59;;;;;;;14.10;10.35;;;;;;;29.40;45.94;96608.50;4984885;28;20413;-57
2022/08/19 06:52:33;;;;;;;9.70;8.75;;;;;;;29.06;46.21;96578.84;4984383;28;20089;-57
2022/08/19 06:55:03;;;;;;;13.15;8.75;;;;;;;29.53;45.88;96617.41;4998798;28;20418;-59
2022/08/19 06:57:32;;;;;;;9.55;8.55;;;;;;;29.64;45.30;96617.53;5004019;28;20576;-56
2022/08/19 06:59:59;;;;;;;10.98;8.30;;;;;;;29.80;45.38;96614.00;5004305;28;20069;-60
2022/08/19 07:02:26;;;;;;;10.35;9.00;;;;;;;29.98;44.44;96618.56;5000260;28;20077;-62
2022/08/19 07:04:53;;;;;;;13.57;8.82;;;;;;;30.12;44.15;96606.97;4989194;28;20144;-63
2022/08/19 07:07:20;;;;;;;11.20;10.02;;;;;;;30.29;43.66;96616.44;5004078;28;20090;-59
2022/08/19 07:09:49;;;;;;;13.35;9.63;;;;;;;30.49;43.81;96619.13;5002995;28;20064;-59
2022/08/19 07:12:27;;;;;;;10.05;9.18;;;;;;;30.23;43.66;96595.63;5003687;28;20050;-61
2022/08/19 07:14:55;;;;;;;13.55;10.05;;;;;;;30.26;43.37;96583.16;5004780;28;20108;-61
2022/08/19 07:17:23;;;;;;;11.50;8.18;;;;;;;30.58;43.25;96621.00;5003876;28;20049;-63
2022/08/19 07:19:50;;;;;;;11.82;8.82;;;;;;;30.63;42.66;96618.16;5002629;28;20070;-56
2022/08/19 07:22:22;;;;;;;10.50;9.43;;;;;;;30.87;42.47;96626.34;4996545;28;20050;-59
2022/08/19 07:24:51;;;;;;;10.82;9.23;;;;;;;30.61;41.70;96626.47;5002786;28;20124;-58
2022/08/19 07:27:18;;;;;;;9.93;8.93;;;;;;;30.89;40.57;96630.25;4987799;28;20585;-59
2022/08/19 07:29:54;;;;;;;9.93;8.85;;;;;;;31.09;39.88;96626.41;4988435;28;20047;-60
2022/08/19 07:32:27;;;;;;;13.60;10.00;;;;;;;31.11;40.69;96629.50;5006870;28;20062;-60
2022/08/19 07:34:55;;;;;;;9.73;8.32;;;;;;;31.31;39.68;96620.75;5007933;28;20516;-55
2022/08/19 07:37:26;;;;;;;10.38;8.40;;;;;;;30.97;39.99;96598.28;5006043;28;20080;-59
2022/08/19 07:39:59;;;;;;;8.98;8.07;;;;;;;30.89;40.26;96624.53;4995721;28;20137;-65
2022/08/19 07:42:26;;;;;;;12.70;9.20;;;;;;;30.94;40.80;96598.00;4987593;28;20055;-63
2022/08/19 07:44:53;;;;;;;12.77;8.80;;;;;;;31.23;39.38;96619.66;4992772;28;20050;-62
2022/08/19 07:47:19;;;;;;;11.02;9.20;;;;;;;31.04;39.47;96574.88;4988681;28;20054;-57
2022/08/19 07:50:08;;;;;;;11.80;9.48;;;;;;;31.34;40.28;96624.66;4998934;28;20497;-59
2022/08/19 07:52:39;;;;;;;12.07;8.88;;;;;;;31.43;39.15;96595.75;5006824;28;20255;-59
2022/08/19 07:55:08;;;;;;;11.68;8.85;;;;;;;31.40;39.93;96605.38;5005476;28;20154;-62
2022/08/19 07:57:55;;;;;;;17.52;8.65;;;;;;;31.44;39.33;96606.69;5005151;28;20050;-58
2022/08/19 08:00:22;;;;;;;8.95;7.93;;;;;;;31.61;38.88;96598.13;5001904;28;20046;-58
2022/08/19 08:02:51;;;;;;;9.23;8.25;;;;;;;31.68;38.33;96597.59;5004217;28;20468;-61
2022/08/19 08:10:59;;;;;;;10.02;8.38;;;;;;;32.02;38.47;96584.81;5002065;28;20065;-58
2022/08/19 08:13:26;;;;;;;10.18;8.00;;;;;;;32.15;38.62;96597.28;5000844;28;20057;-59
2022/08/19 08:15:54;;;;;;;9.65;8.52;;;;;;;31.80;38.90;96599.16;4991575;28;20046;-61
2022/08/19 08:18:23;;;;;;;13.13;9.50;;;;;;;31.48;39.84;96566.34;5002275;28;20528;-57
2022/08/19 08:20:57;;;;;;;9.63;8.65;;;;;;;31.40;39.62;96593.94;4990379;28;20116;-62
2022/08/19 08:23:25;;;;;;;13.93;10.55;;;;;;;31.45;39.65;96607.47;5000172;28;20527;-62
2022/08/19 08:25:57;;;;;;;10.07;9.07;;;;;;;31.83;38.99;96603.81;4994303;28;20580;-61
2022/08/19 08:28:27;;;;;;;10.60;9.60;;;;;;;31.86;39.14;96600.72;5002106;28;20105;-60
2022/08/19 08:30:56;;;;;;;15.52;11.48;;;;;;;32.23;38.57;96603.28;4992976;28;20050;-61
2022/08/19 08:33:26;;;;;;;10.02;8.93;;;;;;;32.04;38.31;96602.28;4994871;28;20054;-60
2022/08/19 08:36:04;;;;;;;11.27;9.48;;;;;;;31.97;38.86;96597.06;4995780;28;20050;-58
2022/08/19 08:38:32;;;;;;;11.60;10.55;;;;;;;32.29;38.43;96601.16;4990523;28;20146;-59
2022/08/19 08:41:19;;;;;;;10.45;9.05;;;;;;;32.49;37.51;96609.47;4986255;28;20394;-66
2022/08/19 08:43:50;;;;;;;12.80;8.15;;;;;;;32.55;37.37;96598.75;4986033;28;20141;-65
2022/08/19 08:46:33;;;;;;;10.95;9.32;;;;;;;32.52;37.95;96596.94;4998841;28;20053;-61
2022/08/19 08:49:18;;;;;;;11.75;9.55;;;;;;;32.70;37.64;96604.97;4994316;28;20517;-63
2022/08/19 08:51:50;;;;;;;9.77;8.80;;;;;;;32.92;37.27;96593.41;4997240;28;20053;-62
2022/08/19 08:54:33;;;;;;;10.45;9.40;;;;;;;32.88;37.12;96584.28;4985486;28;20084;-61
2022/08/19 08:57:07;;;;;;;13.10;9.65;;;;;;;33.24;36.42;96597.38;4985484;28;20090;-62
2022/08/19 08:59:37;;;;;;;10.45;8.60;;;;;;;32.99;36.32;96549.75;4994301;28;20053;-60
2022/08/19 09:02:04;;;;;;;12.18;9.38;;;;;;;33.67;35.93;96598.38;5001599;28;20058;-62
2022/08/19 09:04:31;;;;;;;9.85;8.93;;;;;;;33.81;35.27;96589.91;4985248;28;20050;-65
2022/08/19 09:07:19;;;;;;;11.38;9.95;;;;;;;33.45;35.78;96584.19;4988634;28;20520;-61
2022/08/19 09:10:36;;;;;;;9.50;8.48;;;;;;;34.07;35.19;96584.44;4985132;28;20058;-59
2022/08/19 09:13:45;;;;;;;10.73;8.63;;;;;;;34.43;35.08;96577.28;4993014;28;20517;-60
2022/08/19 09:16:20;;;;;;;9.93;8.98;;;;;;;34.81;34.17;96573.13;4988051;28;20050;-63
2022/08/19 09:19:01;;;;;;;9.95;8.45;;;;;;;35.06;33.87;96566.00;4992193;28;20073;-58
2022/08/19 09:21:28;;;;;;;9.27;8.48;;;;;;;34.35;33.92;96513.00;4994031;28;20278;-63
2022/08/19 09:23:59;;;;;;;11.43;9.35;;;;;;;34.49;34.04;96534.84;4983782;28;20441;-59
2022/08/19 09:26:30;;;;;;;9.50;8.57;;;;;;;34.75;34.10;96563.78;4985900;28;20054;-61
2022/08/19 09:29:16;;;;;;;10.48;9.40;;;;;;;34.56;34.57;96571.63;4984171;28;20107;-59
2022/08/19 09:31:43;;;;;;;11.32;9.63;;;;;;;34.59;33.46;96571.31;4985895;28;20505;-58
2022/08/19 09:34:10;;;;;;;8.98;8.27;;;;;;;34.69;33.61;96542.94;4983899;28;20050;-59
2022/08/19 09:36:52;;;;;;;9.45;8.55;;;;;;;34.93;33.16;96558.06;4983803;28;20050;-61
2022/08/19 09:39:19;;;;;;;9.57;8.55;;;;;;;35.14;32.24;96547.53;4989732;28;20715;-60
2022/08/19 09:41:46;;;;;;;9.30;8.15;;;;;;;35.14;32.41;96549.66;4991064;28;20058;-58
2022/08/19 09:44:14;;;;;;;8.90;7.82;;;;;;;34.89;33.27;96542.41;4984709;28;20050;-63
2022/08/19 09:46:41;;;;;;;12.48;8.88;;;;;;;34.55;33.59;96538.41;4984556;28;20046;-60
2022/08/19 09:49:08;;;;;;;9.32;8.48;;;;;;;34.66;33.54;96538.25;4983896;28;20529;-57
2022/08/19 09:51:35;;;;;;;9.25;7.78;;;;;;;34.82;33.69;96540.13;4984652;28;20058;-60
2022/08/19 09:54:04;;;;;;;8.68;7.88;;;;;;;34.18;33.57;96510.31;4995105;28;20086;-58
2022/08/19 09:56:31;;;;;;;9.88;8.85;;;;;;;34.57;33.00;96544.41;4984490;28;20567;-58
2022/08/19 09:59:01;;;;;;;7.97;7.05;;;;;;;34.82;32.09;96545.91;4986633;28;20144;-61
2022/08/19 10:01:30;;;;;;;7.35;6.65;;;;;;;34.81;32.30;96516.31;4987795;28;20053;-61
2022/08/19 10:03:58;;;;;;;8.93;7.53;;;;;;;34.87;31.70;96542.16;4984274;28;20086;-61
2022/08/19 10:06:29;;;;;;;10.55;9.55;;;;;;;35.13;30.54;96536.56;4984294;28;20077;-56
2022/08/19 10:09:13;;;;;;;9.13;6.93;;;;;;;33.09;30.58;96220.84;4987263;28;20085;-58
2022/08/19 10:11:42;;;;;;;9.15;7.47;;;;;;;35.35;30.84;96556.38;4984318;28;20054;-62
2022/08/19 10:14:23;;;;;;;7.97;7.28;;;;;;;34.94;30.52;96541.56;4992695;28;20057;-60
2022/08/19 10:16:50;;;;;;;8.02;7.22;;;;;;;34.82;30.74;96494.09;4986737;28;20065;-62
2022/08/19 10:19:17;;;;;;;8.60;7.35;;;;;;;35.00;31.22;96534.41;4985551;28;20069;-63
2022/08/19 10:21:52;;;;;;;7.20;6.60;;;;;;;35.14;30.68;96520.84;4982309;28;20070;-66
2022/08/19 10:24:20;;;;;;;10.73;8.00;;;;;;;34.76;30.70;96525.06;4986883;28;20493;-59
2022/08/19 10:26:48;;;;;;;19.48;11.27;;;;;;;34.73;30.39;96503.88;4985271;28;20043;-66
2022/08/19 10:29:24;;;;;;;9.60;7.35;;;;;;;35.06;29.91;96488.25;4986087;28;20054;-63
2022/08/19 10:32:04;;;;;;;8.35;7.57;;;;;;;35.44;30.86;96532.19;4984108;28;20050;-58
2022/08/19 10:34:36;;;;;;;9.35;8.45;;;;;;;35.59;30.98;96526.66;4984444;28;20156;-59
2022/08/19 10:37:17;;;;;;;11.57;8.60;;;;;;;34.92;31.04;96495.28;4982909;28;20046;-59
2022/08/19 10:39:54;;;;;;;10.02;7.57;;;;;;;35.26;30.13;96493.41;4992920;28;20061;-62
2022/08/19 10:42:21;;;;;;;8.20;7.45;;;;;;;35.44;29.85;96527.22;4984554;28;20077;-58
2022/08/19 10:44:48;;;;;;;8.30;7.50;;;;;;;35.09;30.68;96522.47;4990890;28;20445;-62
2022/08/19 10:47:17;;;;;;;8.55;7.85;;;;;;;35.22;31.01;96524.63;4993189;28;20133;-59
2022/08/19 10:52:44;;;;;;;8.50;7.65;;;;;;;35.84;30.57;96514.44;4982298;28;20050;-65
2022/08/19 10:58:16;;;;;;;10.18;7.03;;;;;;;35.02;30.44;96507.94;4992107;28;20085;-59
2022/08/19 11:00:50;;;;;;;7.13;6.43;;;;;;;35.16;30.06;96512.44;4985771;28;20058;-58
2022/08/19 11:03:18;;;;;;;7.47;6.78;;;;;;;35.31;30.04;96514.81;4996703;28;20050;-62
2022/08/19 11:05:45;;;;;;;10.27;7.05;;;;;;;34.71;31.16;96399.25;4986463;28;20054;-61
2022/08/19 11:08:11;;;;;;;8.00;7.03;;;;;;;34.02;30.76;96427.91;4990465;28;20058;-61
2022/08/19 11:10:57;;;;;;;10.05;8.68;;;;;;;34.77;30.54;96509.31;4988615;28;20129;-61
2022/08/19 11:13:24;;;;;;;8.77;7.88;;;;;;;34.68;31.83;96495.34;4990490;28;20060;-61
2022/08/19 11:16:03;;;;;;;7.93;6.93;;;;;;;34.57;31.47;96507.75;4988384;28;20051;-60
2022/08/19 11:18:38;;;;;;;8.65;7.25;;;;;;;34.83;30.68;96495.63;4996146;28;20112;-61
2022/08/19 11:21:10;;;;;;;7.75;7.05;;;;;;;35.13;29.98;96507.00;4986572;28;20062;-62
2022/08/19 11:23:37;;;;;;;9.48;7.53;;;;;;;35.21;29.69;96445.31;4992485;28;20105;-61
2022/08/19 11:26:04;;;;;;;8.95;8.07;;;;;;;35.08;30.76;96500.75;4992071;28;20437;-58
2022/08/19 11:28:31;;;;;;;9.68;7.93;;;;;;;34.89;31.44;96502.09;4990018;28;20535;-59
2022/08/19 11:30:57;;;;;;;13.77;7.63;;;;;;;34.90;31.32;96454.72;5000052;28;20069;-61
2022/08/19 11:33:26;;;;;;;8.13;7.43;;;;;;;35.39;30.85;96490.63;4988032;28;20526;-61
2022/08/19 11:35:54;;;;;;;7.35;6.70;;;;;;;35.21;30.59;96494.28;4995327;28;20445;-60
2022/08/19 11:38:20;;;;;;;9.07;7.10;;;;;;;35.11;29.97;96488.16;5000576;28;20062;-61
2022/08/19 11:41:04;;;;;;;7.80;6.65;;;;;;;35.20;30.56;96478.34;4993408;28;20528;-59
2022/08/19 11:43:31;;;;;;;7.80;6.88;;;;;;;34.99;31.25;96486.78;4989717;28;20074;-59
2022/08/19 11:46:09;;;;;;;10.25;7.85;;;;;;;34.70;32.06;96466.75;4998562;28;20058;-60
2022/08/19 11:48:37;;;;;;;8.00;7.20;;;;;;;34.50;32.88;96478.84;4992791;28;20057;-60
2022/08/19 11:51:08;;;;;;;8.25;7.57;;;;;;;34.97;32.38;96468.47;4989262;28;20061;-59
2022/08/19 11:53:35;;;;;;;11.10;9.75;;;;;;;34.68;32.58;96446.41;4990654;28;20446;-59
2022/08/19 11:56:06;;;;;;;9.15;8.25;;;;;;;34.51;32.39;96448.75;5000894;28;20156;-59
2022/08/19 11:58:34;;;;;;;8.25;7.45;;;;;;;35.25;31.71;96477.47;4991187;28;20054;-61